createdAt,value
2022-09-26T00:01:32.177Z,100.00
2022-09-26T00:04:02.514Z,100.00
2022-09-26T00:06:29.929Z,100.00
2022-09-26T00:08:57.318Z,100.00
2022-09-26T00:11:31.142Z,100.00
2022-09-26T00:14:01.443Z,100.00
2022-09-26T00:16:29.007Z,100.00
2022-09-26T00:18:57.489Z,100.00
2022-09-26T00:21:26.465Z,100.00
2022-09-26T00:23:54.205Z,100.00
2022-09-26T00:26:23.432Z,100.00
2022-09-26T00:28:51.501Z,100.00
2022-09-26T00:31:21.962Z,100.00
2022-09-26T00:33:49.329Z,100.00
2022-09-26T00:36:16.549Z,100.00
2022-09-26T00:38:44.415Z,100.00
2022-09-26T00:41:12.452Z,100.00
2022-09-26T00:43:43.251Z,100.00
2022-09-26T00:46:31.626Z,100.00
2022-09-26T00:49:17.329Z,100.00
2022-09-26T00:51:51.398Z,100.00
2022-09-26T00:54:19.898Z,100.00
2022-09-26T00:56:52.203Z,100.00
2022-09-26T00:59:41.783Z,100.00
2022-09-26T01:02:09.519Z,100.00
2022-09-26T01:04:40.084Z,100.00
2022-09-26T01:07:14.600Z,100.00
2022-09-26T01:09:42.446Z,100.00
2022-09-26T01:12:10.210Z,100.00
2022-09-26T01:14:38.752Z,100.00
2022-09-26T01:17:06.087Z,100.00
2022-09-26T01:19:52.354Z,100.00
2022-09-26T01:23:05.862Z,100.00
2022-09-26T01:25:58.634Z,100.00
2022-09-26T01:28:42.134Z,100.00
2022-09-26T01:31:34.702Z,100.00
2022-09-26T01:34:05.009Z,100.00
2022-09-26T01:37:01.815Z,100.00
2022-09-26T01:39:46.881Z,100.00
2022-09-26T01:42:26.461Z,100.00
2022-09-26T01:45:13.119Z,100.00
2022-09-26T01:47:46.958Z,100.00
2022-09-26T01:50:38.746Z,100.00
2022-09-26T01:53:12.107Z,100.00
2022-09-26T01:55:43.436Z,100.00
2022-09-26T01:58:16.883Z,100.00
2022-09-26T02:00:47.505Z,100.00
2022-09-26T02:03:22.255Z,100.00
2022-09-26T02:05:58.209Z,100.00
2022-09-26T02:08:33.967Z,100.00
2022-09-26T02:11:13.216Z,100.00
2022-09-26T02:13:56.009Z,100.00
2022-09-26T02:16:30.136Z,100.00
2022-09-26T02:22:17.921Z,100.00
2022-09-26T02:24:45.894Z,100.00
2022-09-26T02:27:14.137Z,100.00
2022-09-26T02:29:43.660Z,100.00
2022-09-26T02:32:20.623Z,100.00
2022-09-26T02:34:50.690Z,100.00
2022-09-26T02:37:23.197Z,100.00
2022-09-26T02:39:52.603Z,100.00
2022-09-26T02:42:51.963Z,100.00
2022-09-26T02:45:40.530Z,100.00
2022-09-26T02:48:32.651Z,100.00
2022-09-26T02:51:25.632Z,100.00
2022-09-26T02:54:11.903Z,100.00
2022-09-26T02:57:04.973Z,100.00
2022-09-26T02:59:35.215Z,100.00
2022-09-26T03:02:17.903Z,100.00
2022-09-26T03:05:09.520Z,100.00
2022-09-26T03:07:44.812Z,100.00
2022-09-26T03:10:14.133Z,100.00
2022-09-26T03:12:45.133Z,100.00
2022-09-26T03:15:14.219Z,100.00
2022-09-26T03:17:47.349Z,100.00
2022-09-26T03:20:21.790Z,100.00
2022-09-26T03:22:51.339Z,100.00
2022-09-26T03:25:22.339Z,100.00
2022-09-26T03:27:57.243Z,100.00
2022-09-26T03:30:25.021Z,100.00
2022-09-26T03:33:28.231Z,100.00
2022-09-26T03:36:06.546Z,100.00
2022-09-26T03:38:34.238Z,100.00
2022-09-26T03:41:17.922Z,100.00
2022-09-26T03:47:30.419Z,100.00
2022-09-26T03:49:57.828Z,100.00
2022-09-26T03:52:25.467Z,100.00
2022-09-26T03:54:53.495Z,100.00
2022-09-26T03:57:21.096Z,100.00
2022-09-26T03:59:55.328Z,100.00
2022-09-26T04:02:23.375Z,100.00
2022-09-26T04:05:05.724Z,100.00
2022-09-26T04:12:11.704Z,100.00
2022-09-26T04:14:46.038Z,100.00
2022-09-26T04:17:13.632Z,100.00
2022-09-26T04:19:43.787Z,100.00
2022-09-26T04:22:12.007Z,100.00
2022-09-26T04:24:39.433Z,100.00
2022-09-26T04:27:07.379Z,100.00
2022-09-26T04:29:34.952Z,100.00
2022-09-26T04:32:12.588Z,100.00
2022-09-26T04:35:17.687Z,100.00
2022-09-26T04:37:46.245Z,100.00
2022-09-26T04:40:15.755Z,100.00
2022-09-26T04:43:01.520Z,100.00
2022-09-26T04:45:28.817Z,100.00
2022-09-26T04:47:57.425Z,100.00
2022-09-26T04:50:29.023Z,100.00
2022-09-26T04:53:07.942Z,100.00
2022-09-26T04:55:48.057Z,100.00
2022-09-26T04:58:17.364Z,100.00
2022-09-26T05:00:48.023Z,100.00
2022-09-26T05:03:22.207Z,100.00
2022-09-26T05:05:50.203Z,100.00
2022-09-26T05:08:28.375Z,100.00
2022-09-26T05:10:57.508Z,100.00
2022-09-26T05:13:53.878Z,100.00
2022-09-26T05:33:40.449Z,100.00
2022-09-26T05:36:09.885Z,100.00
2022-09-26T05:47:51.343Z,100.00
2022-09-26T05:50:43.871Z,100.00
2022-09-26T06:02:28.057Z,100.00
2022-09-26T06:05:25.834Z,100.00
2022-09-26T06:11:48.748Z,100.00
2022-09-26T06:14:18.015Z,100.00
2022-09-26T06:16:45.457Z,100.00
2022-09-26T06:19:14.135Z,100.00
2022-09-26T06:21:44.406Z,100.00
2022-09-26T06:24:15.635Z,100.00
2022-09-26T06:26:43.637Z,100.00
2022-09-26T06:29:11.354Z,100.00
2022-09-26T06:31:41.620Z,100.00
2022-09-26T06:34:31.762Z,100.00
2022-09-26T06:37:14.396Z,100.00
2022-09-26T06:39:41.874Z,100.00
2022-09-26T06:42:09.446Z,100.00
2022-09-26T06:44:50.073Z,100.00
2022-09-26T06:47:29.086Z,100.00
2022-09-26T06:50:22.876Z,100.00
2022-09-26T06:52:54.082Z,100.00
2022-09-26T06:55:24.293Z,100.00
2022-09-26T06:57:53.485Z,100.00
2022-09-26T07:00:23.036Z,100.00
2022-09-26T07:03:15.507Z,100.00
2022-09-26T07:05:48.875Z,100.00
2022-09-26T07:08:16.963Z,100.00
2022-09-26T07:10:44.408Z,100.00
2022-09-26T07:13:24.444Z,100.00
2022-09-26T07:15:52.044Z,100.00
2022-09-26T07:18:39.704Z,100.00
2022-09-26T07:21:36.022Z,100.00
2022-09-26T07:24:14.163Z,100.00
2022-09-26T07:26:42.315Z,100.00
2022-09-26T07:29:10.641Z,100.00
2022-09-26T07:31:38.976Z,100.00
2022-09-26T07:34:08.644Z,100.00
2022-09-26T07:36:39.867Z,100.00
2022-09-26T07:39:08.626Z,100.00
2022-09-26T07:41:35.864Z,100.00
2022-09-26T07:47:09.598Z,100.00
2022-09-26T07:49:55.518Z,100.00
2022-09-26T07:52:38.392Z,100.00
2022-09-26T07:55:28.466Z,100.00
2022-09-26T07:57:59.344Z,100.00
2022-09-26T08:00:36.243Z,100.00
2022-09-26T08:03:16.273Z,100.00
2022-09-26T08:05:44.213Z,100.00
2022-09-26T08:08:11.498Z,100.00
2022-09-26T08:11:05.664Z,100.00
2022-09-26T08:13:45.784Z,100.00
2022-09-26T08:16:26.116Z,100.00
2022-09-26T08:18:58.753Z,100.00
2022-09-26T08:21:26.496Z,100.00
2022-09-26T08:23:57.401Z,100.00
2022-09-26T08:26:44.657Z,100.00
2022-09-26T08:29:26.781Z,100.00
2022-09-26T08:31:55.536Z,100.00
2022-09-26T08:34:25.601Z,100.00
2022-09-26T08:37:29.040Z,100.00
2022-09-26T08:40:15.222Z,100.00
2022-09-26T08:43:33.118Z,100.00
2022-09-26T08:46:58.413Z,100.00
2022-09-26T08:49:56.349Z,100.00
2022-09-26T08:52:30.222Z,100.00
2022-09-26T08:55:01.780Z,100.00
2022-09-26T08:57:48.198Z,100.00
2022-09-26T09:00:19.288Z,100.00
2022-09-26T09:03:04.239Z,100.00
2022-09-26T09:05:35.726Z,100.00
2022-09-26T09:08:07.997Z,100.00
2022-09-26T09:10:47.767Z,100.00
2022-09-26T09:13:59.416Z,100.00
2022-09-26T09:17:15.046Z,100.00
2022-09-26T09:20:32.643Z,100.00
2022-09-26T09:23:30.633Z,100.00
2022-09-26T09:29:23.111Z,100.00
2022-09-26T09:32:53.275Z,100.00
2022-09-26T09:35:39.915Z,100.00
2022-09-26T09:38:30.939Z,100.00
2022-09-26T09:41:07.822Z,100.00
2022-09-26T09:43:57.968Z,100.00
2022-09-26T09:46:30.620Z,100.00
2022-09-26T09:49:10.189Z,100.00
2022-09-26T09:51:39.481Z,100.00
2022-09-26T09:54:28.439Z,100.00
2022-09-26T09:57:08.964Z,100.00
2022-09-26T10:00:11.007Z,100.00
2022-09-26T10:03:19.157Z,100.00
2022-09-26T10:05:51.810Z,100.00
2022-09-26T10:08:31.590Z,100.00
2022-09-26T10:11:24.030Z,100.00
2022-09-26T10:14:04.724Z,100.00
2022-09-26T10:17:15.324Z,100.00
2022-09-26T10:20:01.900Z,100.00
2022-09-26T10:22:45.105Z,100.00
2022-09-26T10:25:28.089Z,100.00
2022-09-26T10:27:57.380Z,100.00
2022-09-26T10:30:30.473Z,100.00
2022-09-26T10:33:05.326Z,100.00
2022-09-26T10:35:44.267Z,100.00
2022-09-26T10:38:22.850Z,100.00
2022-09-26T10:41:23.612Z,100.00
2022-09-26T10:43:57.647Z,100.00
2022-09-26T10:46:50.678Z,100.00
2022-09-26T10:49:52.226Z,100.00
2022-09-26T10:52:28.737Z,100.00
2022-09-26T10:55:19.658Z,100.00
2022-09-26T10:57:53.981Z,100.00
2022-09-26T11:00:37.718Z,100.00
2022-09-26T11:03:16.325Z,100.00
2022-09-26T11:06:35.139Z,100.00
2022-09-26T11:09:20.789Z,100.00
2022-09-26T11:12:26.668Z,100.00
2022-09-26T11:15:00.257Z,100.00
2022-09-26T11:17:45.230Z,100.00
2022-09-26T11:20:40.714Z,100.00
2022-09-26T11:23:19.539Z,100.00
2022-09-26T11:26:00.069Z,100.00
2022-09-26T11:28:36.221Z,100.00
2022-09-26T11:31:26.877Z,100.00
2022-09-26T11:34:18.749Z,100.00
2022-09-26T11:36:55.704Z,100.00
2022-09-26T11:39:41.224Z,100.00
2022-09-26T11:42:44.202Z,100.00
2022-09-26T11:45:46.604Z,100.00
2022-09-26T11:48:54.995Z,100.00
2022-09-26T11:52:10.048Z,100.00
2022-09-26T11:54:46.477Z,100.00
2022-09-26T11:57:19.291Z,100.00
2022-09-26T12:00:02.164Z,100.00
2022-09-26T12:02:57.446Z,100.00
2022-09-26T12:05:34.107Z,100.00
2022-09-26T12:08:19.294Z,100.00
2022-09-26T12:11:05.379Z,100.00
2022-09-26T12:13:47.398Z,100.00
2022-09-26T12:16:42.381Z,100.00
2022-09-26T12:19:39.502Z,100.00
2022-09-26T12:22:34.099Z,100.00
2022-09-26T12:25:20.444Z,100.00
2022-09-26T12:28:10.283Z,100.00
2022-09-26T12:30:48.942Z,100.00
2022-09-26T12:33:39.130Z,100.00
2022-09-26T12:36:40.468Z,100.00
2022-09-26T12:39:32.779Z,100.00
2022-09-26T12:42:25.337Z,100.00
2022-09-26T12:45:05.407Z,100.00
2022-09-26T12:47:50.847Z,96.85
2022-09-26T12:50:41.618Z,98.71
2022-09-26T12:53:29.004Z,100.00
2022-09-26T12:56:07.045Z,96.19
2022-09-26T12:58:46.099Z,95.04
2022-09-26T13:01:43.609Z,97.87
2022-09-26T13:04:38.752Z,100.00
2022-09-26T13:07:18.739Z,100.00
2022-09-26T13:10:31.797Z,92.50
2022-09-26T13:13:23.126Z,95.58
2022-09-26T13:16:25.412Z,89.15
2022-09-26T13:19:00.178Z,97.84
2022-09-26T13:21:44.123Z,98.15
2022-09-26T13:24:20.677Z,100.00
2022-09-26T13:26:54.175Z,100.00
2022-09-26T13:29:30.903Z,100.00
2022-09-26T13:32:14.634Z,100.00
2022-09-26T13:34:51.580Z,100.00
2022-09-26T13:37:42.363Z,100.00
2022-09-26T13:40:33.149Z,95.14
2022-09-26T13:43:25.697Z,95.32
2022-09-26T13:46:27.156Z,98.62
2022-09-26T13:49:25.146Z,96.37
2022-09-26T13:52:19.131Z,90.77
2022-09-26T13:55:19.353Z,95.12
2022-09-26T13:58:06.917Z,100.00
2022-09-26T14:00:39.041Z,98.02
2022-09-26T14:03:18.356Z,96.19
2022-09-26T14:05:51.178Z,100.00
2022-09-26T14:08:43.365Z,98.42
2022-09-26T14:11:20.055Z,92.23
2022-09-26T14:13:48.399Z,92.79
2022-09-26T14:16:27.760Z,100.00
2022-09-26T14:19:09.298Z,100.00
2022-09-26T14:21:58.928Z,94.55
2022-09-26T14:24:33.452Z,96.41
2022-09-26T14:27:09.795Z,93.11
2022-09-26T14:29:50.423Z,97.27
2022-09-26T14:32:20.511Z,97.36
2022-09-26T14:34:54.175Z,91.91
2022-09-26T14:37:24.178Z,92.89
2022-09-26T14:39:57.796Z,90.92
2022-09-26T14:42:36.028Z,100.00
2022-09-26T14:45:07.127Z,96.88
2022-09-26T14:47:43.099Z,99.35
2022-09-26T14:50:20.767Z,100.00
2022-09-26T14:52:56.696Z,100.00
2022-09-26T14:55:25.055Z,98.92
2022-09-26T14:57:52.615Z,100.00
2022-09-26T15:00:40.370Z,100.00
2022-09-26T15:03:14.713Z,100.00
2022-09-26T15:05:43.771Z,100.00
2022-09-26T15:08:41.114Z,100.00
2022-09-26T15:11:08.272Z,100.00
2022-09-26T15:13:42.731Z,96.41
2022-09-26T15:16:12.988Z,92.69
2022-09-26T15:18:58.023Z,89.81
2022-09-26T15:21:40.612Z,95.62
2022-09-26T15:24:24.041Z,98.53
2022-09-26T15:26:51.884Z,98.21
2022-09-26T15:29:19.058Z,97.12
2022-09-26T15:31:47.215Z,100.00
2022-09-26T15:34:21.349Z,100.00
2022-09-26T15:36:56.599Z,100.00
2022-09-26T15:39:32.719Z,100.00
2022-09-26T15:42:24.600Z,100.00
2022-09-26T15:44:59.697Z,100.00
2022-09-26T15:47:30.323Z,100.00
2022-09-26T15:50:08.589Z,100.00
2022-09-26T15:52:40.529Z,100.00
2022-09-26T15:55:15.832Z,100.00
2022-09-26T15:57:45.039Z,100.00
2022-09-26T16:00:14.671Z,100.00
2022-09-26T16:02:42.721Z,100.00
2022-09-26T16:05:13.052Z,100.00
2022-09-26T16:07:47.888Z,100.00
2022-09-26T16:10:29.628Z,100.00
2022-09-26T16:13:00.520Z,100.00
2022-09-26T16:15:30.164Z,100.00
2022-09-26T16:17:58.821Z,100.00
2022-09-26T16:20:33.100Z,100.00
2022-09-26T16:23:05.301Z,100.00
2022-09-26T16:25:35.502Z,100.00
2022-09-26T16:28:22.474Z,100.00
2022-09-26T16:31:10.313Z,100.00
2022-09-26T16:33:39.532Z,100.00
2022-09-26T16:36:15.155Z,100.00
2022-09-26T16:38:42.651Z,100.00
2022-09-26T16:41:59.505Z,100.00
2022-09-26T16:44:27.667Z,100.00
2022-09-26T16:47:01.694Z,100.00
2022-09-26T16:49:47.165Z,100.00
2022-09-26T16:52:36.425Z,100.00
2022-09-26T16:55:06.247Z,100.00
2022-09-26T16:57:37.458Z,100.00
2022-09-26T17:00:33.914Z,100.00
2022-09-26T17:03:02.106Z,100.00
2022-09-26T17:05:29.647Z,100.00
2022-09-26T17:07:58.274Z,100.00
2022-09-26T17:10:26.194Z,100.00
2022-09-26T17:12:53.574Z,100.00
2022-09-26T17:15:28.073Z,100.00
2022-09-26T17:17:57.048Z,100.00
2022-09-26T17:20:24.629Z,100.00
2022-09-26T17:22:51.773Z,100.00
2022-09-26T17:25:19.269Z,100.00
2022-09-26T17:27:51.066Z,100.00
2022-09-26T17:30:19.569Z,100.00
2022-09-26T17:32:50.126Z,100.00
2022-09-26T17:35:24.126Z,100.00
2022-09-26T17:37:51.715Z,100.00
2022-09-26T17:40:24.140Z,100.00
2022-09-26T17:42:52.760Z,100.00
2022-09-26T17:45:20.199Z,100.00
2022-09-26T17:47:47.847Z,100.00
2022-09-26T17:50:28.969Z,100.00
2022-09-26T17:52:58.040Z,100.00
2022-09-26T17:55:25.227Z,100.00
2022-09-26T17:57:54.087Z,100.00
2022-09-26T18:00:21.367Z,100.00
2022-09-26T18:03:01.513Z,100.00
2022-09-26T18:05:34.102Z,100.00
2022-09-26T18:08:07.256Z,100.00
2022-09-26T18:10:35.444Z,100.00
2022-09-26T18:13:13.656Z,100.00
2022-09-26T18:15:41.673Z,100.00
2022-09-26T18:18:14.478Z,100.00
2022-09-26T18:20:42.088Z,100.00
2022-09-26T18:23:16.402Z,100.00
2022-09-26T18:25:47.269Z,100.00
2022-09-26T18:28:20.543Z,100.00
2022-09-26T18:30:54.348Z,100.00
2022-09-26T18:33:24.265Z,100.00
2022-09-26T18:35:52.598Z,100.00
2022-09-26T18:38:19.867Z,100.00
2022-09-26T18:40:56.222Z,100.00
2022-09-26T18:43:25.976Z,100.00
2022-09-26T18:45:53.236Z,100.00
2022-09-26T18:48:31.658Z,100.00
2022-09-26T18:50:59.993Z,100.00
2022-09-26T18:53:37.210Z,100.00
2022-09-26T18:56:24.056Z,100.00
2022-09-26T18:58:52.366Z,100.00
2022-09-26T19:01:37.941Z,100.00
2022-09-26T19:04:07.453Z,100.00
2022-09-26T19:06:41.697Z,100.00
2022-09-26T19:09:15.041Z,100.00
2022-09-26T19:11:42.711Z,100.00
2022-09-26T19:14:18.590Z,100.00
2022-09-26T19:16:47.722Z,100.00
2022-09-26T19:19:15.737Z,100.00
2022-09-26T19:21:46.646Z,100.00
2022-09-26T19:24:27.824Z,100.00
2022-09-26T19:27:05.963Z,100.00
2022-09-26T19:29:52.385Z,100.00
2022-09-26T19:32:39.849Z,100.00
2022-09-26T19:35:24.337Z,100.00
2022-09-26T19:37:51.695Z,100.00
2022-09-26T19:40:20.876Z,100.00
2022-09-26T19:42:48.987Z,100.00
2022-09-26T19:45:18.392Z,100.00
2022-09-26T19:47:47.618Z,100.00
2022-09-26T19:50:20.580Z,100.00
2022-09-26T19:52:50.385Z,100.00
2022-09-26T19:55:26.407Z,100.00
2022-09-26T19:57:56.041Z,100.00
2022-09-26T20:00:23.834Z,100.00
2022-09-26T20:02:51.958Z,100.00
2022-09-26T20:05:21.641Z,100.00
2022-09-26T20:07:49.021Z,100.00
2022-09-26T20:10:22.572Z,100.00
2022-09-26T20:12:49.972Z,100.00
2022-09-26T20:15:22.593Z,100.00
2022-09-26T20:17:51.165Z,100.00
2022-09-26T20:20:25.198Z,100.00
2022-09-26T20:22:53.966Z,100.00
2022-09-26T20:25:26.989Z,100.00
2022-09-26T20:27:55.839Z,100.00
2022-09-26T20:30:42.251Z,100.00
2022-09-26T20:33:10.522Z,100.00
2022-09-26T20:35:43.513Z,100.00
2022-09-26T20:38:26.415Z,100.00
2022-09-26T20:41:00.531Z,100.00
2022-09-26T20:43:32.283Z,100.00
2022-09-26T20:46:02.132Z,100.00
2022-09-26T20:48:30.495Z,100.00
2022-09-26T20:50:57.704Z,100.00
2022-09-26T20:53:25.146Z,100.00
2022-09-26T20:55:55.826Z,100.00
2022-09-26T20:58:23.411Z,100.00
2022-09-26T21:00:53.010Z,100.00
2022-09-26T21:03:25.166Z,100.00
2022-09-26T21:05:52.634Z,100.00
2022-09-26T21:08:28.665Z,100.00
2022-09-26T21:10:56.480Z,100.00
2022-09-26T21:13:23.786Z,100.00
2022-09-26T21:15:52.406Z,100.00
2022-09-26T21:18:25.529Z,100.00
2022-09-26T21:20:53.777Z,100.00
2022-09-26T21:23:43.568Z,100.00
2022-09-26T21:26:22.594Z,100.00
2022-09-26T21:28:51.208Z,100.00
2022-09-26T21:31:38.744Z,100.00
2022-09-26T21:34:12.540Z,100.00
2022-09-26T21:36:40.683Z,100.00
2022-09-26T21:39:07.996Z,100.00
2022-09-26T21:41:35.964Z,100.00
2022-09-26T21:44:19.456Z,100.00
2022-09-26T21:46:46.861Z,100.00
2022-09-26T21:49:14.291Z,100.00
2022-09-26T21:51:44.337Z,100.00
2022-09-26T21:54:20.266Z,100.00
2022-09-26T21:56:54.654Z,100.00
2022-09-26T21:59:23.665Z,100.00
2022-09-26T22:01:50.976Z,100.00
2022-09-26T22:04:19.015Z,100.00
2022-09-26T22:06:46.083Z,100.00
2022-09-26T22:09:13.181Z,100.00
2022-09-26T22:11:41.023Z,100.00
2022-09-26T22:14:08.172Z,100.00
2022-09-26T22:16:35.529Z,100.00
2022-09-26T22:19:04.280Z,100.00
2022-09-26T22:21:31.675Z,100.00
2022-09-26T22:23:58.862Z,100.00
2022-09-26T22:26:26.156Z,100.00
2022-09-26T22:28:53.319Z,100.00
2022-09-26T22:31:20.578Z,100.00
2022-09-26T22:33:47.833Z,100.00
2022-09-26T22:36:16.346Z,100.00
2022-09-26T22:38:43.736Z,100.00
2022-09-26T22:41:10.980Z,100.00
2022-09-26T22:43:38.151Z,100.00
2022-09-26T22:46:08.358Z,100.00
2022-09-26T22:48:37.647Z,100.00
2022-09-26T22:51:05.769Z,100.00
2022-09-26T22:53:35.998Z,100.00
2022-09-26T22:56:06.860Z,100.00
2022-09-26T22:58:38.287Z,100.00
2022-09-26T23:01:08.683Z,100.00
2022-09-26T23:03:36.643Z,100.00
2022-09-26T23:06:04.608Z,100.00
2022-09-26T23:08:33.223Z,100.00
2022-09-26T23:11:02.723Z,100.00
2022-09-26T23:13:31.990Z,100.00
2022-09-26T23:16:09.937Z,100.00
2022-09-26T23:18:39.387Z,100.00
2022-09-26T23:21:10.634Z,100.00
2022-09-26T23:23:37.923Z,100.00
2022-09-26T23:26:06.785Z,100.00
2022-09-26T23:28:34.618Z,100.00
2022-09-26T23:31:09.971Z,100.00
2022-09-26T23:33:38.226Z,100.00
2022-09-26T23:36:06.506Z,100.00
2022-09-26T23:38:35.460Z,100.00
2022-09-26T23:41:02.784Z,100.00
2022-09-26T23:43:30.200Z,100.00
2022-09-26T23:45:57.458Z,100.00
2022-09-26T23:48:24.833Z,100.00
2022-09-26T23:50:52.347Z,100.00
2022-09-26T23:53:19.671Z,100.00
2022-09-26T23:55:46.917Z,100.00
2022-09-26T23:58:14.751Z,100.00
